Nearby METAR Reports

 

LGKZ - Kozani (civ/Army, Greece
Distance from station: ΝΔ 41km
Ενημερώθηκε: 03/12/2022 16:50

 Ανεμος από varies
Ανεμος: varies 4 km/h
Θερμοκρασία: 9°C
Σημείο Δρόσου: 7°C
Υγρασία: 87%
Βαρόμετρο: 1024 hPa
2022/12/03 14:50 LGKZ 031450Z AUTO VRB02KT //// // ////// 09/07 Q1024 RE//
LGTS - Thessaloniki/Mik, Greece
Distance from station: Α 64km
Ενημερώθηκε: 03/12/2022 16:50
Σχεδόν νεφελώδης
Σχεδόν νεφελώδης
 Ανεμος από varies
Ανεμος: varies 6 km/h
Θερμοκρασία: 13°C
Σημείο Δρόσου: 11°C
Υγρασία: 88%
Βαρόμετρο: 1025 hPa
Clouds: Σχεδόν νεφελώδης
Visibility: 10 km
Cloud details: Few Clouds 244 m
Σχεδόν νεφελώδης 762 m
2022/12/03 14:50 LGTS 031450Z VRB03KT 9999 FEW008 BKN025 13/11 Q1025 NOSIG